Time;durP1;ratioP1;P1;durP2;ratioP2;P2;SDS_P1;SDS_P2;PMS_P1;PMS_P2;Temp;Humidity;BMP_temperature;BMP_pressure;BME280_temperature;BME280_humidity;BME280_pressure;Samples;Min_cycle;Max_cycle;Signal;HPM_P1;HPM_P2
2021/04/13 00:02:38;;;;;;;6.05;4.50;;;;;;;;;;3588288;39;20021;-50
2021/04/13 00:05:23;;;;;;;6.70;4.88;;;;;;;;;;3587264;39;20426;-51
2021/04/13 00:07:50;;;;;;;8.02;4.53;;;;;;;;;;3590113;39;20045;-49
2021/04/13 00:10:24;;;;;;;14.90;5.15;;;;;;;;;;3586914;40;20048;-50
2021/04/13 00:12:51;;;;;;;6.30;4.45;;;;;;;;;;3587093;39;20040;-52
2021/04/13 00:15:33;;;;;;;6.80;5.03;;;;;;;;;;3588110;39;20044;-53
2021/04/13 00:18:00;;;;;;;9.00;6.30;;;;;;;;;;3589003;39;20089;-53
2021/04/13 00:20:44;;;;;;;8.10;5.15;;;;;;;;;;3588969;39;20036;-49
2021/04/13 00:23:10;;;;;;;9.18;5.43;;;;;;;;;;3587100;40;20070;-52
2021/04/13 00:25:39;;;;;;;11.07;5.60;;;;;;;;;;3587205;40;20041;-55
2021/04/13 00:28:08;;;;;;;7.55;5.70;;;;;;;;;;3588169;39;20021;-52
2021/04/13 00:30:49;;;;;;;11.48;5.05;;;;;;;;;;3587330;39;20045;-53
2021/04/13 00:33:19;;;;;;;10.80;5.22;;;;;;;;;;3587094;40;20036;-49
2021/04/13 00:36:00;;;;;;;9.18;5.30;;;;;;;;;;3586728;40;20460;-50
2021/04/13 00:38:25;;;;;;;8.77;5.18;;;;;;;;;;3587592;40;20380;-51
2021/04/13 00:40:53;;;;;;;9.18;5.40;;;;;;;;;;3587188;39;20047;-53
2021/04/13 00:43:22;;;;;;;6.80;5.10;;;;;;;;;;3586806;40;20040;-51
2021/04/13 00:45:49;;;;;;;10.27;5.35;;;;;;;;;;3587049;39;20274;-53
2021/04/13 00:48:21;;;;;;;9.98;5.75;;;;;;;;;;3587962;39;20033;-52
2021/04/13 00:50:49;;;;;;;8.15;5.57;;;;;;;;;;3587381;40;20101;-50
2021/04/13 00:53:18;;;;;;;7.60;5.10;;;;;;;;;;3586260;40;20031;-51
2021/04/13 00:55:52;;;;;;;15.85;5.80;;;;;;;;;;3587125;40;20339;-51
2021/04/13 00:58:28;;;;;;;7.15;4.97;;;;;;;;;;3587009;40;20410;-49
2021/04/13 01:00:57;;;;;;;11.10;6.35;;;;;;;;;;3588552;39;20043;-50
2021/04/13 01:03:25;;;;;;;6.45;4.97;;;;;;;;;;3588390;40;20271;-54
2021/04/13 01:05:55;;;;;;;7.70;5.10;;;;;;;;;;3588165;40;20060;-52
2021/04/13 01:08:39;;;;;;;7.30;5.72;;;;;;;;;;3588107;40;20400;-51
2021/04/13 01:11:22;;;;;;;7.97;5.40;;;;;;;;;;3591667;39;20028;-49
2021/04/13 01:13:57;;;;;;;9.90;5.65;;;;;;;;;;3587962;40;20056;-53
2021/04/13 01:16:33;;;;;;;7.88;5.70;;;;;;;;;;3588964;40;20033;-52
2021/04/13 01:19:10;;;;;;;6.63;4.93;;;;;;;;;;3589144;40;20125;-53
2021/04/13 01:21:48;;;;;;;9.68;5.20;;;;;;;;;;3589489;40;20084;-50
2021/04/13 01:24:23;;;;;;;7.00;5.10;;;;;;;;;;3588586;40;20040;-51
2021/04/13 01:26:51;;;;;;;6.70;4.85;;;;;;;;;;3588167;40;20440;-50
2021/04/13 01:29:19;;;;;;;6.95;5.05;;;;;;;;;;3588432;40;20275;-50
2021/04/13 01:31:52;;;;;;;11.38;5.85;;;;;;;;;;3588279;39;20316;-54
2021/04/13 01:34:42;;;;;;;8.23;5.28;;;;;;;;;;3589398;39;20035;-53
2021/04/13 01:37:32;;;;;;;9.35;5.07;;;;;;;;;;3587057;40;20040;-55
2021/04/13 01:40:16;;;;;;;6.57;4.80;;;;;;;;;;3588844;40;20044;-52
2021/04/13 01:42:42;;;;;;;6.95;5.28;;;;;;;;;;3588759;40;20032;-54
2021/04/13 01:45:19;;;;;;;8.05;5.28;;;;;;;;;;3588089;40;20033;-51
2021/04/13 01:47:46;;;;;;;9.25;5.20;;;;;;;;;;3589082;40;20645;-51
2021/04/13 01:50:31;;;;;;;6.55;4.63;;;;;;;;;;3588401;40;20086;-51
2021/04/13 01:53:16;;;;;;;6.82;5.07;;;;;;;;;;3588394;40;20046;-51
2021/04/13 01:55:51;;;;;;;6.90;4.93;;;;;;;;;;3588848;40;20056;-52
2021/04/13 01:58:19;;;;;;;8.90;5.57;;;;;;;;;;3589780;40;20377;-49
2021/04/13 02:01:03;;;;;;;8.07;5.38;;;;;;;;;;3588884;39;20051;-52
2021/04/13 02:03:33;;;;;;;7.55;5.30;;;;;;;;;;3589425;40;20029;-52
2021/04/13 02:06:03;;;;;;;7.93;5.20;;;;;;;;;;3590125;39;20032;-51
2021/04/13 02:08:37;;;;;;;9.68;5.32;;;;;;;;;;3589627;40;20048;-52
2021/04/13 02:11:21;;;;;;;9.40;6.57;;;;;;;;;;3588920;40;20374;-49
2021/04/13 02:14:02;;;;;;;8.27;6.38;;;;;;;;;;3587508;39;20040;-48
2021/04/13 02:16:36;;;;;;;7.33;6.07;;;;;;;;;;3588778;40;20509;-52
2021/04/13 02:19:07;;;;;;;9.15;5.78;;;;;;;;;;3590343;39;20612;-51
2021/04/13 02:21:47;;;;;;;7.90;5.32;;;;;;;;;;3588848;40;20080;-50
2021/04/13 02:24:23;;;;;;;9.63;6.80;;;;;;;;;;3587679;39;20080;-49
2021/04/13 02:26:53;;;;;;;9.88;5.60;;;;;;;;;;3588806;39;20059;-53
2021/04/13 02:29:22;;;;;;;8.95;6.07;;;;;;;;;;3587389;40;20327;-50
2021/04/13 02:31:57;;;;;;;8.25;6.20;;;;;;;;;;3589722;39;20048;-47
2021/04/13 02:34:25;;;;;;;8.25;6.10;;;;;;;;;;3587671;40;20049;-50
2021/04/13 02:36:55;;;;;;;7.30;5.93;;;;;;;;;;3588107;39;20052;-48
2021/04/13 02:39:23;;;;;;;8.18;6.05;;;;;;;;;;3587783;39;20047;-49
2021/04/13 02:41:50;;;;;;;9.15;6.07;;;;;;;;;;3588477;39;20043;-50
2021/04/13 02:44:19;;;;;;;7.47;5.70;;;;;;;;;;3587777;40;20040;-52
2021/04/13 02:46:46;;;;;;;7.75;5.35;;;;;;;;;;3585849;39;20047;-54
2021/04/13 02:49:18;;;;;;;7.70;5.25;;;;;;;;;;3587333;39;20052;-53
2021/04/13 02:52:03;;;;;;;9.63;5.65;;;;;;;;;;3587744;39;20039;-48
2021/04/13 02:54:34;;;;;;;7.32;5.38;;;;;;;;;;3588461;40;20091;-50
2021/04/13 02:57:42;;;;;;;7.30;5.75;;;;;;;;;;3589008;40;20033;-48
2021/04/13 03:00:17;;;;;;;7.85;5.25;;;;;;;;;;3587844;40;20882;-50
2021/04/13 03:02:49;;;;;;;8.05;5.45;;;;;;;;;;3588020;40;20047;-53
2021/04/13 03:05:16;;;;;;;;;;;;;;;;;;3588639;39;20024;-50
2021/04/13 03:07:42;;;;;;;8.32;6.30;;;;;;;;;;3588797;40;19943;-50
2021/04/13 03:10:13;;;;;;;9.27;6.22;;;;;;;;;;3587879;39;20187;-50
2021/04/13 03:12:42;;;;;;;11.38;6.60;;;;;;;;;;3587926;40;20044;-50
2021/04/13 03:15:13;;;;;;;7.45;6.18;;;;;;;;;;3591498;39;20049;-47
2021/04/13 03:17:46;;;;;;;7.60;6.50;;;;;;;;;;3588458;39;20040;-51
2021/04/13 03:20:14;;;;;;;9.57;7.18;;;;;;;;;;3589388;40;20265;-53
2021/04/13 03:22:41;;;;;;;8.90;6.07;;;;;;;;;;3589197;40;20112;-51
2021/04/13 03:25:09;;;;;;;7.95;6.45;;;;;;;;;;3587224;40;20044;-54
2021/04/13 03:27:36;;;;;;;10.65;7.75;;;;;;;;;;3586445;40;20029;-50
2021/04/13 03:30:22;;;;;;;9.35;7.00;;;;;;;;;;3587776;39;20028;-49
2021/04/13 03:32:54;;;;;;;8.95;6.85;;;;;;;;;;3587861;39;20256;-51
2021/04/13 03:35:23;;;;;;;9.48;7.45;;;;;;;;;;3587800;40;20047;-48
2021/04/13 03:37:51;;;;;;;8.63;7.25;;;;;;;;;;3588190;40;20040;-52
2021/04/13 03:40:20;;;;;;;9.43;7.32;;;;;;;;;;3587430;40;20033;-53
2021/04/13 03:42:46;;;;;;;9.77;7.10;;;;;;;;;;3587285;40;20109;-49
2021/04/13 03:45:16;;;;;;;12.27;6.88;;;;;;;;;;3587103;40;20056;-52
2021/04/13 03:47:45;;;;;;;9.73;7.00;;;;;;;;;;3587842;40;20032;-47
2021/04/13 03:50:17;;;;;;;13.40;6.97;;;;;;;;;;3587860;40;20040;-50
2021/04/13 03:52:43;;;;;;;8.43;6.63;;;;;;;;;;3587829;40;20327;-50
2021/04/13 03:55:26;;;;;;;9.32;6.88;;;;;;;;;;3588386;40;20044;-49
2021/04/13 03:57:52;;;;;;;13.15;7.45;;;;;;;;;;3587686;40;20087;-52
2021/04/13 04:00:27;;;;;;;9.75;7.30;;;;;;;;;;3586643;39;20028;-48
2021/04/13 04:02:53;;;;;;;9.68;6.88;;;;;;;;;;3587000;39;20043;-48
2021/04/13 04:05:23;;;;;;;9.93;7.80;;;;;;;;;;3587229;40;20032;-50
2021/04/13 04:08:01;;;;;;;11.23;8.32;;;;;;;;;;3588982;39;20272;-52
2021/04/13 04:10:41;;;;;;;8.88;7.25;;;;;;;;;;3587045;39;20438;-51
2021/04/13 04:13:29;;;;;;;9.90;7.97;;;;;;;;;;3590192;39;20044;-51
2021/04/13 04:16:20;;;;;;;10.93;7.72;;;;;;;;;;3586999;40;20102;-51
2021/04/13 04:18:50;;;;;;;8.10;6.75;;;;;;;;;;3588243;40;20052;-50
2021/04/13 04:21:18;;;;;;;8.68;6.85;;;;;;;;;;3588268;40;20025;-49
2021/04/13 04:23:44;;;;;;;16.77;8.30;;;;;;;;;;3588006;40;20037;-49
2021/04/13 04:26:11;;;;;;;23.10;7.78;;;;;;;;;;3587545;40;20036;-49
2021/04/13 04:28:39;;;;;;;10.35;8.05;;;;;;;;;;3593909;39;20051;-53
2021/04/13 04:31:34;;;;;;;10.25;8.68;;;;;;;;;;3589281;39;20048;-53
2021/04/13 04:34:13;;;;;;;10.60;7.40;;;;;;;;;;3588672;40;20047;-52
2021/04/13 04:36:44;;;;;;;11.52;7.97;;;;;;;;;;3587641;40;20066;-50
2021/04/13 04:39:25;;;;;;;17.45;9.13;;;;;;;;;;3588576;40;20077;-50
2021/04/13 04:41:55;;;;;;;12.27;8.93;;;;;;;;;;3588363;40;20044;-53
2021/04/13 04:44:29;;;;;;;12.70;8.23;;;;;;;;;;3588663;40;20303;-49
2021/04/13 04:46:59;;;;;;;13.48;7.72;;;;;;;;;;3589231;40;20081;-51
2021/04/13 04:49:45;;;;;;;10.13;8.18;;;;;;;;;;3587745;40;20137;-51
2021/04/13 04:52:11;;;;;;;10.52;7.65;;;;;;;;;;3589235;39;20122;-49
2021/04/13 04:54:36;;;;;;;10.45;7.93;;;;;;;;;;3589526;40;20071;-48
2021/04/13 04:57:03;;;;;;;11.95;7.97;;;;;;;;;;3589166;40;20037;-52
2021/04/13 04:59:28;;;;;;;13.93;8.43;;;;;;;;;;3588703;40;20092;-48
2021/04/13 05:01:53;;;;;;;12.02;7.80;;;;;;;;;;3590533;39;20045;-47
2021/04/13 05:04:19;;;;;;;10.95;7.82;;;;;;;;;;3589989;39;20083;-52
2021/04/13 05:06:44;;;;;;;12.80;8.82;;;;;;;;;;3588426;40;20121;-51
2021/04/13 05:09:09;;;;;;;10.48;8.32;;;;;;;;;;3588507;40;20203;-51
2021/04/13 05:11:35;;;;;;;11.63;8.15;;;;;;;;;;3588201;40;20033;-50
2021/04/13 05:14:00;;;;;;;11.85;7.85;;;;;;;;;;3588596;40;20029;-51
2021/04/13 05:16:25;;;;;;;15.30;8.60;;;;;;;;;;3588864;39;20063;-49
2021/04/13 05:18:51;;;;;;;11.23;8.18;;;;;;;;;;3588493;39;20024;-49
2021/04/13 05:21:17;;;;;;;10.07;7.90;;;;;;;;;;3588539;40;20039;-50
2021/04/13 05:23:43;;;;;;;35.40;30.70;;;;;;;;;;3588595;40;20059;-49
2021/04/13 05:26:09;;;;;;;18.50;14.98;;;;;;;;;;3589062;40;20385;-51
2021/04/13 05:28:36;;;;;;;20.83;14.43;;;;;;;;;;3588427;40;20362;-52
2021/04/13 05:31:02;;;;;;;18.65;15.00;;;;;;;;;;3588841;39;20072;-49
2021/04/13 05:33:28;;;;;;;14.07;12.38;;;;;;;;;;3588540;40;20037;-49
2021/04/13 05:35:54;;;;;;;18.42;13.85;;;;;;;;;;3588409;39;20042;-50
2021/04/13 05:38:24;;;;;;;12.10;10.05;;;;;;;;;;3587908;40;20044;-49
2021/04/13 05:40:50;;;;;;;12.20;9.10;;;;;;;;;;3588761;40;20036;-46
2021/04/13 05:43:17;;;;;;;12.45;8.50;;;;;;;;;;3588152;40;20379;-50
2021/04/13 05:45:45;;;;;;;12.35;8.65;;;;;;;;;;3589941;40;20715;-48
2021/04/13 05:48:11;;;;;;;15.88;8.20;;;;;;;;;;3588875;39;20032;-51
2021/04/13 05:50:40;;;;;;;12.95;8.38;;;;;;;;;;3588191;40;20029;-52
2021/04/13 05:53:06;;;;;;;11.73;9.15;;;;;;;;;;3588888;40;20333;-49
2021/04/13 05:55:32;;;;;;;11.60;8.70;;;;;;;;;;3586800;40;20102;-48
2021/04/13 05:58:01;;;;;;;17.25;10.38;;;;;;;;;;3587477;40;20383;-49
2021/04/13 06:00:28;;;;;;;16.98;10.10;;;;;;;;;;3586411;39;20047;-51
2021/04/13 06:02:54;;;;;;;13.35;9.48;;;;;;;;;;3588466;39;20035;-52
2021/04/13 06:05:24;;;;;;;15.02;9.85;;;;;;;;;;3587650;40;20076;-50
2021/04/13 06:07:49;;;;;;;12.63;9.88;;;;;;;;;;3588133;40;20049;-49
2021/04/13 06:10:15;;;;;;;16.08;9.60;;;;;;;;;;3589763;39;20051;-53
2021/04/13 06:12:42;;;;;;;13.88;9.73;;;;;;;;;;3589345;39;20169;-47
2021/04/13 06:15:08;;;;;;;13.73;10.10;;;;;;;;;;3587816;40;20334;-49
2021/04/13 06:17:34;;;;;;;17.58;11.07;;;;;;;;;;3587722;40;20399;-50
2021/04/13 06:19:59;;;;;;;17.15;11.27;;;;;;;;;;3591395;39;20052;-48
2021/04/13 06:22:24;;;;;;;16.17;11.77;;;;;;;;;;3587952;40;20261;-49
2021/04/13 06:24:50;;;;;;;17.45;11.90;;;;;;;;;;3588835;39;20056;-48
2021/04/13 06:27:15;;;;;;;19.10;11.77;;;;;;;;;;3588208;40;20033;-50
2021/04/13 06:29:41;;;;;;;19.48;11.23;;;;;;;;;;3588157;40;20360;-51
2021/04/13 06:32:10;;;;;;;16.77;11.20;;;;;;;;;;3588692;39;20121;-48
2021/04/13 06:34:36;;;;;;;14.50;11.95;;;;;;;;;;3587950;40;20072;-51
2021/04/13 06:37:04;;;;;;;17.52;12.35;;;;;;;;;;3588695;40;20039;-52
2021/04/13 06:39:32;;;;;;;19.40;14.60;;;;;;;;;;3588830;40;20081;-54
2021/04/13 06:42:12;;;;;;;22.70;14.40;;;;;;;;;;3588108;40;20043;-51
2021/04/13 06:44:47;;;;;;;22.90;13.98;;;;;;;;;;3587893;40;20087;-54
2021/04/13 06:47:48;;;;;;;19.38;14.43;;;;;;;;;;3586865;40;20064;-49
2021/04/13 06:50:44;;;;;;;17.23;14.07;;;;;;;;;;3588848;40;20033;-52
2021/04/13 06:53:28;;;;;;;16.92;12.68;;;;;;;;;;3588452;40;20041;-54
2021/04/13 06:56:18;;;;;;;17.10;14.82;;;;;;;;;;3587488;40;20035;-53
2021/04/13 06:59:01;;;;;;;18.35;14.48;;;;;;;;;;3587114;40;20040;-54
2021/04/13 07:01:38;;;;;;;17.95;14.57;;;;;;;;;;3588346;39;20036;-52
2021/04/13 07:04:26;;;;;;;19.83;15.57;;;;;;;;;;3588346;40;20040;-52
2021/04/13 07:07:12;;;;;;;18.42;15.20;;;;;;;;;;3587751;40;20044;-49
2021/04/13 07:09:56;;;;;;;16.33;14.63;;;;;;;;;;3588605;40;20703;-52
2021/04/13 07:12:34;;;;;;;20.20;15.65;;;;;;;;;;3588288;40;20055;-52
2021/04/13 07:15:38;;;;;;;18.20;15.65;;;;;;;;;;3588648;39;20039;-51
2021/04/13 07:18:18;;;;;;;18.45;15.45;;;;;;;;;;3588744;40;20360;-49
2021/04/13 07:20:47;;;;;;;15.60;13.95;;;;;;;;;;3588041;40;20038;-52
2021/04/13 07:23:22;;;;;;;18.48;15.52;;;;;;;;;;3587652;40;20032;-50
2021/04/13 07:25:56;;;;;;;17.95;16.15;;;;;;;;;;3591278;39;20405;-48
2021/04/13 07:28:40;;;;;;;17.75;14.35;;;;;;;;;;3587980;40;20044;-51
2021/04/13 07:31:16;;;;;;;17.20;14.32;;;;;;;;;;3588933;39;20041;-54
2021/04/13 07:33:43;;;;;;;18.00;15.20;;;;;;;;;;3588238;40;20046;-54
2021/04/13 07:36:17;;;;;;;21.45;15.32;;;;;;;;;;3586832;40;20051;-53
2021/04/13 07:38:47;;;;;;;19.23;14.38;;;;;;;;;;3587077;40;20371;-55
2021/04/13 07:41:26;;;;;;;18.58;14.68;;;;;;;;;;3588764;39;20025;-52
2021/04/13 07:44:05;;;;;;;17.33;14.07;;;;;;;;;;3587446;40;20040;-52
2021/04/13 07:46:41;;;;;;;21.23;14.02;;;;;;;;;;3587706;40;20045;-50
2021/04/13 07:49:13;;;;;;;18.33;14.93;;;;;;;;;;3587098;40;20045;-54
2021/04/13 07:51:55;;;;;;;15.57;13.15;;;;;;;;;;3587660;40;20090;-54
2021/04/13 07:54:43;;;;;;;18.23;13.38;;;;;;;;;;3587995;40;20043;-53
2021/04/13 07:57:19;;;;;;;16.63;12.98;;;;;;;;;;3587880;39;20134;-52
2021/04/13 07:59:50;;;;;;;15.88;12.50;;;;;;;;;;3586550;39;20117;-52
2021/04/13 08:02:15;;;;;;;;;;;;;;;;;;3598555;39;20032;-55
2021/04/13 08:04:48;;;;;;;14.18;11.90;;;;;;;;;;3588670;39;19960;-55
2021/04/13 08:07:26;;;;;;;15.48;12.98;;;;;;;;;;3588959;39;20039;-55
2021/04/13 08:09:54;;;;;;;16.15;12.35;;;;;;;;;;3588336;39;20032;-54
2021/04/13 08:12:28;;;;;;;13.70;10.98;;;;;;;;;;3588667;39;20044;-53
2021/04/13 08:14:53;;;;;;;12.98;11.20;;;;;;;;;;3587077;39;20036;-53
2021/04/13 08:17:35;;;;;;;16.73;10.68;;;;;;;;;;3587946;39;20042;-53
2021/04/13 08:20:09;;;;;;;18.95;10.68;;;;;;;;;;3588286;39;20366;-50
2021/04/13 08:22:59;;;;;;;15.77;8.95;;;;;;;;;;3589218;39;20129;-51
2021/04/13 08:25:38;;;;;;;10.57;8.63;;;;;;;;;;3589059;39;20036;-53
2021/04/13 08:28:18;;;;;;;10.63;8.50;;;;;;;;;;3586716;39;20040;-55
2021/04/13 08:34:11;;;;;;;14.23;7.88;;;;;;;;;;3587810;39;20401;-49
2021/04/13 08:36:48;;;;;;;11.88;7.55;;;;;;;;;;3588052;39;20040;-53
2021/04/13 08:39:32;;;;;;;10.60;7.68;;;;;;;;;;3587984;39;20118;-48
2021/04/13 08:42:19;;;;;;;11.07;6.78;;;;;;;;;;3587229;39;20115;-52
2021/04/13 08:44:55;;;;;;;10.27;7.03;;;;;;;;;;3588462;39;20054;-53
2021/04/13 08:47:41;;;;;;;9.75;6.85;;;;;;;;;;3587251;39;20060;-53
2021/04/13 08:50:40;;;;;;;10.23;7.15;;;;;;;;;;3587312;39;20029;-50
2021/04/13 08:53:10;;;;;;;9.80;7.38;;;;;;;;;;3586956;39;20036;-49
2021/04/13 08:55:35;;;;;;;9.48;6.50;;;;;;;;;;3587382;39;20142;-51
2021/04/13 08:58:13;;;;;;;10.07;7.22;;;;;;;;;;3587515;39;20509;-53
2021/04/13 09:00:48;;;;;;;8.65;6.55;;;;;;;;;;3587612;39;20032;-55
2021/04/13 09:03:16;;;;;;;17.15;7.10;;;;;;;;;;3587420;39;20044;-51
2021/04/13 09:05:44;;;;;;;10.55;7.75;;;;;;;;;;3587055;39;20408;-55
2021/04/13 09:08:13;;;;;;;9.57;7.32;;;;;;;;;;3587386;39;20056;-53
2021/04/13 09:11:02;;;;;;;10.95;6.68;;;;;;;;;;3587916;39;20056;-54
2021/04/13 09:13:33;;;;;;;10.35;6.28;;;;;;;;;;3587668;39;20092;-51
2021/04/13 09:16:08;;;;;;;9.30;5.55;;;;;;;;;;3587664;39;20045;-51
2021/04/13 09:18:46;;;;;;;13.10;5.97;;;;;;;;;;3587296;39;20481;-53
2021/04/13 09:21:20;;;;;;;9.10;5.75;;;;;;;;;;3587382;39;20044;-52
2021/04/13 09:23:48;;;;;;;9.10;4.97;;;;;;;;;;3587275;39;20113;-55
2021/04/13 09:26:38;;;;;;;7.07;5.28;;;;;;;;;;3589154;39;20044;-55
2021/04/13 09:29:08;;;;;;;10.15;5.32;;;;;;;;;;3591365;39;20037;-55
2021/04/13 09:31:39;;;;;;;9.75;5.30;;;;;;;;;;3589074;39;20032;-51
2021/04/13 09:34:23;;;;;;;6.75;4.97;;;;;;;;;;3589116;39;20040;-52
2021/04/13 09:37:22;;;;;;;9.07;4.70;;;;;;;;;;3586252;39;20028;-54
2021/04/13 09:40:24;;;;;;;9.20;4.70;;;;;;;;;;3587080;39;20039;-55
2021/04/13 09:42:55;;;;;;;14.85;5.50;;;;;;;;;;3586834;40;20040;-54
2021/04/13 09:45:24;;;;;;;10.68;5.18;;;;;;;;;;3587309;40;20387;-53
2021/04/13 09:47:52;;;;;;;6.68;4.38;;;;;;;;;;3589384;39;20423;-56
2021/04/13 09:50:36;;;;;;;7.88;4.20;;;;;;;;;;3588122;40;20041;-51
2021/04/13 09:53:43;;;;;;;6.72;4.18;;;;;;;;;;3589245;39;20401;-53
2021/04/13 09:56:29;;;;;;;5.55;3.20;;;;;;;;;;3587852;40;20096;-51
2021/04/13 09:59:13;;;;;;;9.73;3.40;;;;;;;;;;3588233;40;20505;-54
2021/04/13 10:01:41;;;;;;;3.83;2.30;;;;;;;;;;3588100;40;20364;-51
2021/04/13 10:04:18;;;;;;;4.65;2.15;;;;;;;;;;3588855;40;20055;-55
2021/04/13 10:07:14;;;;;;;4.53;1.77;;;;;;;;;;3587722;40;20148;-55
2021/04/13 10:09:41;;;;;;;4.45;2.50;;;;;;;;;;3587888;40;20037;-56
2021/04/13 10:12:28;;;;;;;6.13;2.28;;;;;;;;;;3588325;40;20038;-54
2021/04/13 10:15:30;;;;;;;4.85;2.33;;;;;;;;;;3588133;40;20650;-55
2021/04/13 10:18:06;;;;;;;3.47;1.70;;;;;;;;;;3588803;40;20033;-49
2021/04/13 10:20:50;;;;;;;2.40;1.20;;;;;;;;;;3588203;40;20056;-54
2021/04/13 10:23:21;;;;;;;2.60;1.20;;;;;;;;;;3589488;40;20550;-55
2021/04/13 10:26:14;;;;;;;5.80;1.70;;;;;;;;;;3588815;39;20040;-55
2021/04/13 10:29:01;;;;;;;3.65;1.27;;;;;;;;;;3587549;40;20523;-55
2021/04/13 10:32:04;;;;;;;4.85;2.13;;;;;;;;;;3590740;39;20048;-57
2021/04/13 10:35:00;;;;;;;4.95;1.80;;;;;;;;;;3588805;39;20024;-56
2021/04/13 10:37:34;;;;;;;4.75;1.70;;;;;;;;;;3587903;40;20032;-56
2021/04/13 10:40:52;;;;;;;5.40;1.58;;;;;;;;;;3588950;40;20089;-57
2021/04/13 10:43:41;;;;;;;9.45;1.73;;;;;;;;;;3586545;40;20037;-56
2021/04/13 10:46:30;;;;;;;3.45;1.25;;;;;;;;;;3589384;39;20037;-56
2021/04/13 10:49:16;;;;;;;4.38;1.55;;;;;;;;;;3588203;39;20124;-53
2021/04/13 10:52:08;;;;;;;3.65;1.27;;;;;;;;;;3587653;39;20261;-56
2021/04/13 10:54:50;;;;;;;2.88;1.30;;;;;;;;;;3588150;39;20040;-57
2021/04/13 10:57:39;;;;;;;4.07;1.75;;;;;;;;;;3587993;39;20046;-55
2021/04/13 11:00:10;;;;;;;3.63;1.88;;;;;;;;;;3588223;39;20088;-55
2021/04/13 11:02:54;;;;;;;;;;;;;;;;;;3589649;39;20081;-56
2021/04/13 11:05:54;;;;;;;3.88;1.58;;;;;;;;;;3588136;39;20261;-55
2021/04/13 11:08:31;;;;;;;3.40;1.30;;;;;;;;;;3588019;39;20500;-56
2021/04/13 11:11:22;;;;;;;4.22;1.75;;;;;;;;;;3588939;39;20042;-55
2021/04/13 11:14:06;;;;;;;3.40;1.33;;;;;;;;;;3588878;39;20040;-57
2021/04/13 11:17:02;;;;;;;4.75;1.40;;;;;;;;;;3588109;39;20404;-55
2021/04/13 11:19:52;;;;;;;3.30;1.55;;;;;;;;;;3589748;39;20028;-59
2021/04/13 11:22:50;;;;;;;4.63;1.48;;;;;;;;;;3588587;39;20033;-57
2021/04/13 11:25:56;;;;;;;3.53;1.27;;;;;;;;;;3587540;39;20044;-56
2021/04/13 11:28:31;;;;;;;4.20;1.40;;;;;;;;;;3590125;39;20524;-57
2021/04/13 11:31:21;;;;;;;4.43;1.40;;;;;;;;;;3590454;39;20028;-56
2021/04/13 11:34:07;;;;;;;3.15;1.45;;;;;;;;;;3590292;39;20040;-56
2021/04/13 11:37:10;;;;;;;6.00;1.40;;;;;;;;;;3591701;39;20025;-53
2021/04/13 11:39:46;;;;;;;4.93;1.63;;;;;;;;;;3590001;39;20287;-53
2021/04/13 11:42:23;;;;;;;4.28;1.50;;;;;;;;;;3589295;39;20120;-54
2021/04/13 11:45:01;;;;;;;5.65;2.10;;;;;;;;;;3589475;39;20060;-51
2021/04/13 11:47:27;;;;;;;4.63;1.92;;;;;;;;;;3591737;39;20040;-50
2021/04/13 11:50:15;;;;;;;3.40;1.60;;;;;;;;;;3588020;39;20048;-53
2021/04/13 11:52:48;;;;;;;8.63;1.70;;;;;;;;;;3588623;40;20036;-54
2021/04/13 11:55:29;;;;;;;6.72;1.33;;;;;;;;;;3588726;40;20060;-53
2021/04/13 11:58:21;;;;;;;4.63;1.63;;;;;;;;;;3590088;39;20058;-52
2021/04/13 12:00:49;;;;;;;3.65;1.40;;;;;;;;;;3589195;39;20049;-55
2021/04/13 12:03:14;;;;;;;4.00;1.23;;;;;;;;;;3587958;39;20036;-52
2021/04/13 12:05:45;;;;;;;6.30;1.70;;;;;;;;;;3589187;39;20036;-55
2021/04/13 12:08:28;;;;;;;3.83;1.23;;;;;;;;;;3591808;39;20044;-57
2021/04/13 12:10:58;;;;;;;3.35;1.60;;;;;;;;;;3587063;39;20094;-54
2021/04/13 12:13:42;;;;;;;5.43;1.67;;;;;;;;;;3588456;39;20272;-57
2021/04/13 12:16:20;;;;;;;8.93;2.17;;;;;;;;;;3589555;39;20290;-54
2021/04/13 12:19:02;;;;;;;3.33;1.40;;;;;;;;;;3588516;39;20047;-54
2021/04/13 12:21:28;;;;;;;5.85;1.70;;;;;;;;;;3593117;39;20162;-51
2021/04/13 12:23:56;;;;;;;4.70;1.52;;;;;;;;;;3590514;39;20248;-56
2021/04/13 12:26:37;;;;;;;4.20;1.73;;;;;;;;;;3587065;39;20045;-56
2021/04/13 12:29:38;;;;;;;5.45;1.95;;;;;;;;;;3588284;40;20036;-55
2021/04/13 12:32:12;;;;;;;5.25;1.85;;;;;;;;;;3584816;40;20080;-56
2021/04/13 12:34:58;;;;;;;4.35;1.75;;;;;;;;;;3588013;40;20037;-54
2021/04/13 12:37:45;;;;;;;6.80;2.22;;;;;;;;;;3591312;39;20466;-55
2021/04/13 12:40:20;;;;;;;4.72;1.85;;;;;;;;;;3589115;39;20376;-56
2021/04/13 12:43:04;;;;;;;5.10;2.53;;;;;;;;;;3588390;40;20371;-58
2021/04/13 12:45:41;;;;;;;8.07;2.30;;;;;;;;;;3588350;39;20032;-55
2021/04/13 12:48:19;;;;;;;4.68;2.08;;;;;;;;;;3588422;40;20261;-53
2021/04/13 12:50:59;;;;;;;4.35;1.60;;;;;;;;;;3588184;40;20043;-56
2021/04/13 12:53:25;;;;;;;4.57;2.13;;;;;;;;;;3587153;40;20052;-56
2021/04/13 12:56:26;;;;;;;7.68;2.05;;;;;;;;;;3585866;40;20033;-57
2021/04/13 12:58:51;;;;;;;4.55;2.42;;;;;;;;;;3587761;40;20577;-57
2021/04/13 13:01:21;;;;;;;5.97;2.53;;;;;;;;;;3589132;40;20029;-57
2021/04/13 13:03:46;;;;;;;5.72;2.17;;;;;;;;;;3589155;40;20033;-52
2021/04/13 13:06:15;;;;;;;3.60;1.55;;;;;;;;;;3588730;40;20033;-57
2021/04/13 13:08:42;;;;;;;5.15;1.73;;;;;;;;;;3588431;40;20550;-55
2021/04/13 13:11:13;;;;;;;3.75;1.67;;;;;;;;;;3588641;40;20458;-54
2021/04/13 13:13:41;;;;;;;4.57;1.80;;;;;;;;;;3588778;40;20126;-57
2021/04/13 13:16:15;;;;;;;8.57;1.85;;;;;;;;;;3588366;40;20039;-54
2021/04/13 13:18:49;;;;;;;4.78;1.58;;;;;;;;;;3589324;39;20051;-57
2021/04/13 13:21:21;;;;;;;3.70;1.65;;;;;;;;;;3588103;39;20044;-55
2021/04/13 13:23:49;;;;;;;4.50;1.73;;;;;;;;;;3588385;39;20035;-53
2021/04/13 13:26:24;;;;;;;6.72;2.30;;;;;;;;;;3589101;40;20040;-56
2021/04/13 13:28:49;;;;;;;5.55;2.40;;;;;;;;;;3590305;39;20028;-54
2021/04/13 13:31:19;;;;;;;3.97;1.60;;;;;;;;;;3592700;39;20035;-56
2021/04/13 13:33:47;;;;;;;3.47;1.60;;;;;;;;;;3588445;40;20136;-56
2021/04/13 13:36:14;;;;;;;8.48;1.95;;;;;;;;;;3588860;40;20363;-54
2021/04/13 13:38:42;;;;;;;5.00;2.15;;;;;;;;;;3587514;39;20048;-55
2021/04/13 13:41:08;;;;;;;6.30;1.65;;;;;;;;;;3591816;39;20069;-55
2021/04/13 13:43:35;;;;;;;4.65;2.22;;;;;;;;;;3588672;40;20028;-56
2021/04/13 13:46:12;;;;;;;5.30;1.63;;;;;;;;;;3589253;40;20033;-55
2021/04/13 13:48:38;;;;;;;5.70;2.00;;;;;;;;;;3588772;40;20036;-57
2021/04/13 13:51:11;;;;;;;3.70;1.27;;;;;;;;;;3590112;40;20241;-56
2021/04/13 13:53:53;;;;;;;4.32;1.60;;;;;;;;;;3589852;40;20059;-57
2021/04/13 13:56:34;;;;;;;5.30;1.73;;;;;;;;;;3588412;40;20257;-55
2021/04/13 13:59:18;;;;;;;;;;;;;;;;;;3590220;40;20057;-56
2021/04/13 14:01:52;;;;;;;4.15;1.55;;;;;;;;;;3589887;40;20017;-56
2021/04/13 14:04:33;;;;;;;4.00;1.30;;;;;;;;;;3590232;40;20433;-54
2021/04/13 14:06:58;;;;;;;;;;;;;;;;;;3590107;39;20800;-57
2021/04/13 14:09:25;;;;;;;3.25;1.25;;;;;;;;;;3587960;39;19924;-53
2021/04/13 14:11:51;;;;;;;2.70;0.90;;;;;;;;;;3588095;39;20275;-56
2021/04/13 14:14:19;;;;;;;4.20;1.30;;;;;;;;;;3588355;40;20033;-53
2021/04/13 14:16:52;;;;;;;2.80;1.00;;;;;;;;;;3587963;40;20061;-56
2021/04/13 14:19:23;;;;;;;7.22;1.77;;;;;;;;;;3587619;40;20094;-54
2021/04/13 14:21:52;;;;;;;4.00;1.30;;;;;;;;;;3588194;40;20109;-55
2021/04/13 14:24:39;;;;;;;2.67;1.08;;;;;;;;;;3588399;40;20060;-55
2021/04/13 14:27:17;;;;;;;1.80;0.73;;;;;;;;;;3589131;40;20403;-56
2021/04/13 14:29:58;;;;;;;5.40;1.30;;;;;;;;;;3589632;39;20040;-54
2021/04/13 14:32:29;;;;;;;1.85;0.80;;;;;;;;;;3588651;40;20139;-53
2021/04/13 14:34:56;;;;;;;2.42;0.90;;;;;;;;;;3589112;39;20071;-55
2021/04/13 14:37:35;;;;;;;3.05;1.20;;;;;;;;;;3590469;40;20059;-53
2021/04/13 14:40:12;;;;;;;4.90;1.38;;;;;;;;;;3590588;40;20046;-55
2021/04/13 14:42:37;;;;;;;4.10;1.52;;;;;;;;;;3590467;40;20064;-54
2021/04/13 14:45:08;;;;;;;3.85;1.58;;;;;;;;;;3589348;40;20029;-56
2021/04/13 14:47:37;;;;;;;2.05;1.08;;;;;;;;;;3589572;39;20037;-54
2021/04/13 14:50:12;;;;;;;4.72;1.35;;;;;;;;;;3588612;40;20029;-57
2021/04/13 14:52:39;;;;;;;3.78;1.23;;;;;;;;;;3588168;39;20027;-55
2021/04/13 14:55:05;;;;;;;3.88;1.50;;;;;;;;;;3589057;40;20504;-54
2021/04/13 14:57:31;;;;;;;5.00;1.77;;;;;;;;;;3590077;40;20272;-56
2021/04/13 14:59:57;;;;;;;5.05;1.77;;;;;;;;;;3590724;40;20039;-56
2021/04/13 15:02:22;;;;;;;2.65;1.27;;;;;;;;;;3590421;40;20039;-54
2021/04/13 15:04:48;;;;;;;4.72;1.38;;;;;;;;;;3588200;40;20084;-55
2021/04/13 15:07:14;;;;;;;2.75;1.15;;;;;;;;;;3588474;40;20048;-56
2021/04/13 15:09:41;;;;;;;2.78;1.30;;;;;;;;;;3588532;39;20048;-55
2021/04/13 15:12:07;;;;;;;4.97;1.60;;;;;;;;;;3588658;40;20048;-54
2021/04/13 15:14:33;;;;;;;4.75;1.55;;;;;;;;;;3588359;40;20055;-55
2021/04/13 15:16:58;;;;;;;5.20;1.30;;;;;;;;;;3588535;39;20041;-55
2021/04/13 15:19:24;;;;;;;2.90;1.05;;;;;;;;;;3588747;40;20307;-54
2021/04/13 15:21:54;;;;;;;9.63;1.35;;;;;;;;;;3587558;39;20930;-57
2021/04/13 15:24:20;;;;;;;3.92;1.13;;;;;;;;;;3588728;40;20032;-56
2021/04/13 15:26:49;;;;;;;3.20;0.93;;;;;;;;;;3588702;40;20055;-56
2021/04/13 15:29:15;;;;;;;3.83;1.50;;;;;;;;;;3587996;39;20044;-55